Time;durP1;ratioP1;P1;durP2;ratioP2;P2;SDS_P1;SDS_P2;PMS_P1;PMS_P2;Temp;Humidity;BMP_temperature;BMP_pressure;BME280_temperature;BME280_humidity;BME280_pressure;Samples;Min_cycle;Max_cycle;Signal;HPM_P1;HPM_P2
2021/04/06 00:00:32;;;;;;;6.22;2.03;;;;;;;-0.77;87.37;95638.63;1031227;28;20094;-71
2021/04/06 00:01:03;;;;;;;7.70;1.95;;;;;;;-0.85;87.06;95637.06;1037582;28;20105;-72
2021/04/06 00:01:45;;;;;;;6.83;2.47;;;;;;;-0.78;88.32;95640.44;1032458;28;20026;-71
2021/04/06 00:02:18;;;;;;;8.35;2.80;;;;;;;-0.74;87.98;95639.03;1036055;28;20037;-71
2021/04/06 00:03:01;;;;;;;8.48;2.28;;;;;;;-0.74;88.46;95636.41;1028053;28;20023;-71
2021/04/06 00:03:31;;;;;;;6.50;2.15;;;;;;;-0.75;89.06;95636.63;1031475;28;20022;-71
2021/04/06 00:04:04;;;;;;;5.83;2.23;;;;;;;-0.82;89.00;95632.22;1032045;28;20030;-71
2021/04/06 00:04:35;;;;;;;9.00;2.30;;;;;;;-0.84;89.05;95628.97;1036298;28;20032;-71
2021/04/06 00:05:06;;;;;;;6.50;2.20;;;;;;;-0.88;90.09;95635.63;1041802;28;20037;-71
2021/04/06 00:05:37;;;;;;;12.77;2.95;;;;;;;-0.91;89.88;95630.03;1040002;28;20490;-72
2021/04/06 00:06:07;;;;;;;7.20;2.03;;;;;;;-0.91;90.39;95633.44;1035945;28;20026;-72
2021/04/06 00:06:39;;;;;;;7.67;2.53;;;;;;;-0.91;90.93;95630.03;1036007;28;20056;-72
2021/04/06 00:07:12;;;;;;;8.85;2.42;;;;;;;-0.86;91.44;95633.63;1036200;28;20026;-72
2021/04/06 00:07:43;;;;;;;7.00;2.80;;;;;;;-0.88;91.52;95630.38;1032236;28;20052;-72
2021/04/06 00:08:14;;;;;;;7.80;2.53;;;;;;;-0.83;91.93;95632.41;1031856;28;20096;-72
2021/04/06 00:08:45;;;;;;;8.75;2.38;;;;;;;-0.86;91.86;95631.00;1027933;28;20054;-72
2021/04/06 00:09:20;;;;;;;5.27;2.27;;;;;;;-0.90;91.56;95637.69;1027852;28;20085;-71
2021/04/06 00:09:53;;;;;;;8.18;2.05;;;;;;;-0.87;92.76;95628.56;1024922;28;20472;-71
2021/04/06 00:10:28;;;;;;;9.80;2.20;;;;;;;-0.88;92.38;95627.75;1030197;28;20105;-71
2021/04/06 00:11:01;;;;;;;7.30;2.03;;;;;;;-0.85;92.70;95629.19;1037710;28;20446;-71
2021/04/06 00:11:32;;;;;;;8.73;2.70;;;;;;;-0.88;92.54;95624.34;1037471;28;20100;-72
2021/04/06 00:12:03;;;;;;;8.23;2.10;;;;;;;-0.87;92.53;95628.56;1040066;28;20038;-72
2021/04/06 00:12:34;;;;;;;6.03;2.38;;;;;;;-0.83;91.75;95635.03;1040167;28;20542;-71
2021/04/06 00:13:04;;;;;;;10.07;2.33;;;;;;;-0.80;92.90;95632.00;1039957;28;20030;-72
2021/04/06 00:13:36;;;;;;;4.90;2.27;;;;;;;-0.80;92.42;95624.13;1032901;28;20029;-72
2021/04/06 00:14:06;;;;;;;9.35;2.83;;;;;;;-0.84;93.07;95630.78;1039950;28;20029;-72
2021/04/06 00:14:37;;;;;;;7.20;2.53;;;;;;;-0.85;92.90;95629.19;1035801;28;20064;-72
2021/04/06 00:15:08;;;;;;;8.57;2.30;;;;;;;-0.80;92.49;95630.16;1031974;28;20033;-72
2021/04/06 00:15:39;;;;;;;8.02;2.50;;;;;;;-0.79;93.24;95633.59;1031895;28;20023;-72
2021/04/06 00:16:09;;;;;;;6.70;2.73;;;;;;;-0.74;93.37;95628.53;1028046;28;20026;-71
2021/04/06 00:16:40;;;;;;;8.37;2.87;;;;;;;-0.75;93.11;95626.94;1031976;28;20025;-71
2021/04/06 00:17:11;;;;;;;7.55;2.80;;;;;;;-0.73;94.25;95624.88;1036349;28;20028;-72
2021/04/06 00:17:43;;;;;;;7.10;2.70;;;;;;;-0.72;93.95;95623.88;1035980;28;20033;-71
2021/04/06 00:18:14;;;;;;;7.68;2.47;;;;;;;-0.71;93.36;95627.31;1036340;28;20079;-71
2021/04/06 00:18:44;;;;;;;5.50;2.70;;;;;;;-0.71;93.15;95628.13;1031810;28;20479;-71
2021/04/06 00:19:18;;;;;;;10.27;3.23;;;;;;;-0.68;92.75;95624.28;1024348;28;20652;-72
2021/04/06 00:19:49;;;;;;;5.72;2.67;;;;;;;-0.66;92.96;95625.69;1023996;29;20051;-72
2021/04/06 00:20:19;;;;;;;6.80;2.70;;;;;;;-0.63;93.78;95621.81;1027949;28;20026;-72
2021/04/06 00:20:50;;;;;;;8.30;2.70;;;;;;;-0.65;93.84;95629.13;1031783;28;20464;-72
2021/04/06 00:21:20;;;;;;;8.30;2.73;;;;;;;-0.67;93.82;95629.31;1032019;28;20026;-72
2021/04/06 00:21:52;;;;;;;8.03;2.90;;;;;;;-0.75;93.02;95626.94;1032085;28;20038;-72
2021/04/06 00:22:24;;;;;;;7.15;2.38;;;;;;;-0.74;93.16;95623.28;1036570;28;20467;-72
2021/04/06 00:22:57;;;;;;;8.15;2.40;;;;;;;-0.89;92.36;95623.53;1040086;28;20524;-71
2021/04/06 00:23:28;;;;;;;5.25;2.47;;;;;;;-0.93;92.69;95621.53;1031717;28;20622;-72
2021/04/06 00:23:59;;;;;;;8.73;2.53;;;;;;;-0.87;93.00;95623.31;1027962;28;20018;-73
2021/04/06 00:24:31;;;;;;;6.72;2.63;;;;;;;-0.79;93.48;95620.47;1028438;28;20023;-72
2021/04/06 00:25:03;;;;;;;6.43;3.15;;;;;;;-0.77;92.79;95620.25;1032862;28;20510;-72
2021/04/06 00:25:35;;;;;;;10.77;2.58;;;;;;;-0.77;93.56;95620.25;1036502;28;20010;-72
2021/04/06 00:26:05;;;;;;;7.63;2.70;;;;;;;-0.76;92.70;95622.69;1035966;28;20026;-73
2021/04/06 00:26:53;;;;;;;6.60;2.37;;;;;;;-0.80;92.13;95624.13;1031943;28;20022;-72
2021/04/06 00:27:29;;;;;;;8.88;2.53;;;;;;;-0.81;92.25;95620.69;1030269;28;20377;-72
2021/04/06 00:28:02;;;;;;;7.07;2.42;;;;;;;-0.80;91.51;95621.50;1031080;28;20550;-72
2021/04/06 00:28:34;;;;;;;8.60;2.55;;;;;;;-0.79;92.13;95629.16;1027817;28;20051;-72
2021/04/06 00:29:04;;;;;;;9.20;2.90;;;;;;;-0.82;93.12;95626.13;1031782;28;20489;-72
2021/04/06 00:29:36;;;;;;;8.47;2.70;;;;;;;-0.76;92.38;95621.91;1028548;28;20026;-73
2021/04/06 00:30:08;;;;;;;5.22;2.47;;;;;;;-0.80;92.37;95622.31;1023840;29;20501;-72
2021/04/06 00:30:38;;;;;;;8.65;2.70;;;;;;;-0.81;92.19;95618.06;1027933;28;20092;-71
2021/04/06 00:31:09;;;;;;;8.73;3.20;;;;;;;-0.77;92.53;95621.06;1024653;28;20086;-72
2021/04/06 00:31:41;;;;;;;5.50;2.40;;;;;;;-0.74;92.75;95623.28;1024661;28;20015;-73
2021/04/06 00:32:11;;;;;;;8.35;2.60;;;;;;;-0.73;92.34;95626.72;1027651;28;20097;-72
2021/04/06 00:32:42;;;;;;;8.20;2.70;;;;;;;-0.72;92.79;95626.50;1027964;28;20018;-73
2021/04/06 00:33:14;;;;;;;9.37;2.63;;;;;;;-0.75;92.46;95619.06;1032561;28;20018;-72
2021/04/06 00:33:47;;;;;;;5.18;2.63;;;;;;;-0.71;92.19;95624.69;1036401;28;20028;-72
2021/04/06 00:34:18;;;;;;;8.50;2.35;;;;;;;-0.76;91.50;95627.94;1031978;28;20109;-72
2021/04/06 00:34:52;;;;;;;9.18;2.42;;;;;;;-0.83;92.62;95622.72;1031935;28;20018;-72
2021/04/06 00:35:26;;;;;;;10.93;3.03;;;;;;;-0.85;92.19;95618.69;1028447;28;20021;-70
2021/04/06 00:35:58;;;;;;;6.57;3.20;;;;;;;-0.83;92.25;95629.78;1033994;28;20421;-71
2021/04/06 00:36:29;;;;;;;6.32;2.40;;;;;;;-0.88;92.16;95617.28;1035485;28;20017;-71
2021/04/06 00:37:13;;;;;;;7.93;2.50;;;;;;;-0.95;91.59;95619.13;1032463;28;20029;-71
2021/04/06 00:37:45;;;;;;;7.40;2.80;;;;;;;-0.91;91.88;95615.09;1031836;28;20050;-72
2021/04/06 00:38:16;;;;;;;7.40;2.65;;;;;;;-1.03;91.73;95613.28;1029446;28;20388;-71
2021/04/06 00:38:46;;;;;;;8.63;2.90;;;;;;;-1.09;92.88;95615.72;1031980;28;20018;-71
2021/04/06 00:39:30;;;;;;;7.90;2.77;;;;;;;-1.06;92.85;95620.56;1028043;28;20030;-71
2021/04/06 00:40:09;;;;;;;9.50;2.47;;;;;;;-1.02;93.30;95618.34;1029823;28;20384;-71
2021/04/06 00:40:45;;;;;;;7.20;2.30;;;;;;;-1.00;92.73;95620.75;1027835;28;20527;-71
2021/04/06 00:41:15;;;;;;;9.52;3.38;;;;;;;-1.00;92.64;95616.31;1027468;28;20066;-71
2021/04/06 00:41:45;;;;;;;10.93;2.90;;;;;;;-1.02;92.41;95612.28;1031045;28;20045;-70
2021/04/06 00:42:19;;;;;;;8.37;3.10;;;;;;;-1.00;93.14;95621.56;1033522;28;20027;-71
2021/04/06 00:42:50;;;;;;;9.90;2.83;;;;;;;-0.98;93.04;95613.47;1036210;28;20022;-72
2021/04/06 00:43:20;;;;;;;8.23;2.60;;;;;;;-0.93;93.45;95618.91;1035211;28;20022;-71
2021/04/06 00:43:51;;;;;;;9.53;3.37;;;;;;;-0.93;93.83;95616.28;1036054;28;20081;-71
2021/04/06 00:44:21;;;;;;;8.83;2.90;;;;;;;-0.89;93.72;95610.41;1035976;28;20030;-71
2021/04/06 00:44:52;;;;;;;9.40;3.13;;;;;;;-0.84;93.86;95615.84;1028062;28;20070;-71
2021/04/06 00:45:23;;;;;;;9.55;3.70;;;;;;;-0.91;93.33;95614.28;1035906;28;20714;-70
2021/04/06 00:45:53;;;;;;;7.97;2.90;;;;;;;-0.88;93.14;95608.59;1031698;28;20022;-71
2021/04/06 00:46:25;;;;;;;10.77;3.67;;;;;;;-0.81;93.97;95617.28;1024197;28;20460;-71
2021/04/06 00:46:55;;;;;;;7.47;2.80;;;;;;;-0.79;94.39;95623.09;1031865;28;20077;-71
2021/04/06 00:47:26;;;;;;;7.33;2.60;;;;;;;-0.77;93.19;95620.25;1032000;28;20097;-71
2021/04/06 00:47:58;;;;;;;6.38;2.80;;;;;;;-0.80;92.41;95611.00;1032135;28;20117;-70
2021/04/06 00:48:28;;;;;;;8.00;2.78;;;;;;;-0.78;92.34;95608.97;1035806;28;20018;-71
2021/04/06 00:48:59;;;;;;;13.43;2.93;;;;;;;-0.77;92.09;95615.81;1028060;28;20117;-72
2021/04/06 00:49:29;;;;;;;8.23;3.00;;;;;;;-0.85;91.64;95613.44;1023887;28;20030;-71
2021/04/06 00:50:07;;;;;;;9.37;2.60;;;;;;;-0.88;91.86;95609.41;1023796;28;20030;-71
2021/04/06 00:50:38;;;;;;;7.65;2.70;;;;;;;-0.85;91.71;95614.25;1025818;28;20027;-72
2021/04/06 00:51:19;;;;;;;6.97;2.72;;;;;;;-0.88;91.17;95624.34;1034020;28;20032;-72
2021/04/06 00:51:50;;;;;;;;;;;;;;;-0.89;91.18;95605.16;1040578;28;20017;-72
2021/04/06 00:52:21;;;;;;;6.60;2.63;;;;;;;-0.89;91.10;95614.88;1040156;28;19996;-71
2021/04/06 00:52:51;;;;;;;7.47;2.97;;;;;;;-0.90;91.48;95616.69;1039962;28;20036;-71
2021/04/06 00:53:22;;;;;;;10.20;3.20;;;;;;;-0.92;91.00;95615.25;1039915;28;20037;-72
2021/04/06 00:54:02;;;;;;;8.20;3.10;;;;;;;-0.92;91.33;95612.63;1041584;28;20521;-71
2021/04/06 00:54:34;;;;;;;9.75;2.53;;;;;;;-0.89;91.58;95612.25;1045610;28;20659;-72
2021/04/06 00:55:04;;;;;;;7.70;2.50;;;;;;;-0.83;91.52;95609.59;1048305;28;20266;-72
2021/04/06 00:55:39;;;;;;;12.20;3.23;;;;;;;-0.83;91.49;95604.34;1035762;28;20033;-72
2021/04/06 00:56:13;;;;;;;10.10;3.00;;;;;;;-0.82;91.55;95605.13;1035945;28;20018;-72
2021/04/06 00:56:44;;;;;;;10.18;3.10;;;;;;;-0.90;92.20;95615.88;1035868;28;20025;-72
2021/04/06 00:57:14;;;;;;;8.37;2.90;;;;;;;-0.90;91.84;95611.44;1038301;28;20600;-71
2021/04/06 00:57:45;;;;;;;10.13;3.03;;;;;;;-0.90;91.85;95616.69;1039555;28;20786;-71
2021/04/06 00:58:15;;;;;;;8.40;2.70;;;;;;;-0.91;91.19;95615.09;1039951;28;20442;-71
2021/04/06 00:58:49;;;;;;;8.47;3.17;;;;;;;-0.85;91.56;95613.44;1035622;28;20018;-71
2021/04/06 00:59:23;;;;;;;11.18;3.25;;;;;;;-0.90;90.84;95610.63;1036084;28;20026;-70
2021/04/06 01:00:17;;;;;;;7.10;2.50;;;;;;;-0.89;90.50;95613.03;1035741;28;20116;-70
2021/04/06 01:00:48;;;;;;;6.97;2.92;;;;;;;-0.89;90.67;95607.78;1040061;28;20490;-71
2021/04/06 01:01:33;;;;;;;8.30;2.70;;;;;;;-0.87;91.40;95611.03;1044364;28;20075;-70
2021/04/06 01:02:04;;;;;;;9.65;2.70;;;;;;;-0.99;90.91;95611.88;1046117;28;20458;-71
2021/04/06 01:02:35;;;;;;;5.88;2.58;;;;;;;-0.96;91.61;95616.72;1046128;28;20021;-72
2021/04/06 01:03:13;;;;;;;7.90;3.00;;;;;;;-0.93;91.13;95618.91;1044482;28;20041;-71
2021/04/06 01:03:44;;;;;;;9.57;2.97;;;;;;;-0.94;91.67;95609.44;1043993;28;20040;-70
2021/04/06 01:04:16;;;;;;;6.20;2.73;;;;;;;-0.96;90.63;95614.09;1035897;28;20075;-70
2021/04/06 01:04:46;;;;;;;12.65;3.15;;;;;;;-0.99;90.86;95617.91;1036007;28;20022;-70
2021/04/06 01:05:16;;;;;;;10.73;2.73;;;;;;;-0.99;91.19;95611.88;1031719;28;20471;-72
2021/04/06 01:06:01;;;;;;;9.47;2.60;;;;;;;-1.09;91.32;95609.69;1032348;28;20030;-71
2021/04/06 01:06:33;;;;;;;13.60;3.28;;;;;;;-1.13;90.97;95606.66;1040015;28;20022;-71
2021/04/06 01:07:06;;;;;;;8.70;3.00;;;;;;;-1.11;91.39;95609.09;1040102;28;20039;-71
2021/04/06 01:07:37;;;;;;;6.80;2.67;;;;;;;-1.16;91.65;95607.09;1040257;28;20028;-71
2021/04/06 01:08:07;;;;;;;9.07;3.27;;;;;;;-1.15;91.36;95607.88;1039966;28;20033;-71
2021/04/06 01:08:38;;;;;;;7.07;2.90;;;;;;;-1.13;91.57;95609.28;1039752;28;20067;-71
2021/04/06 01:09:08;;;;;;;9.23;3.13;;;;;;;-1.10;91.67;95608.88;1039807;28;20108;-71
2021/04/06 01:09:48;;;;;;;8.17;3.30;;;;;;;-1.19;91.01;95610.09;1035739;28;20468;-69
2021/04/06 01:10:18;;;;;;;12.35;3.28;;;;;;;-1.15;91.50;95608.69;1035777;28;20057;-69
2021/04/06 01:10:49;;;;;;;11.07;2.93;;;;;;;-1.12;92.72;95610.91;1027767;28;20035;-68
2021/04/06 01:11:21;;;;;;;5.90;2.70;;;;;;;-1.13;91.99;95601.41;1031626;28;20019;-70
2021/04/06 01:11:52;;;;;;;9.18;2.95;;;;;;;-1.11;92.00;95603.84;1031773;28;20022;-70
2021/04/06 01:12:23;;;;;;;10.47;3.50;;;;;;;-1.07;92.05;95603.22;1031588;28;20468;-70
2021/04/06 01:12:54;;;;;;;6.93;2.80;;;;;;;-1.05;91.95;95613.50;1032096;28;20022;-70
2021/04/06 01:13:26;;;;;;;10.10;3.50;;;;;;;-1.11;91.84;95607.28;1035769;28;20361;-70
2021/04/06 01:13:59;;;;;;;10.27;3.08;;;;;;;-1.11;91.23;95604.66;1034022;28;20023;-71
2021/04/06 01:14:36;;;;;;;8.98;3.45;;;;;;;-1.17;91.51;95602.84;1043945;28;20424;-70
2021/04/06 01:15:07;;;;;;;8.32;3.10;;;;;;;-1.24;91.99;95599.41;1044081;28;20060;-70
2021/04/06 01:15:38;;;;;;;13.23;3.90;;;;;;;-1.25;92.31;95597.81;1041551;28;20053;-70
2021/04/06 01:16:08;;;;;;;8.20;3.57;;;;;;;-1.21;92.48;95598.22;1039921;28;20382;-70
2021/04/06 01:16:39;;;;;;;6.37;3.10;;;;;;;-1.23;92.81;95603.66;1035843;28;20022;-70
2021/04/06 01:17:13;;;;;;;8.45;3.28;;;;;;;-1.25;93.01;95604.88;1039984;28;20075;-70
2021/04/06 01:17:44;;;;;;;9.77;3.20;;;;;;;-1.22;93.57;95604.47;1039963;28;20044;-70
2021/04/06 01:18:14;;;;;;;6.53;3.27;;;;;;;-1.21;93.76;95601.66;1040608;28;20462;-70
2021/04/06 01:18:45;;;;;;;11.73;4.07;;;;;;;-1.13;93.89;95604.03;1040479;28;20429;-70
2021/04/06 01:19:15;;;;;;;7.10;3.60;;;;;;;-1.09;94.19;95605.22;1044025;28;20535;-71
2021/04/06 01:19:46;;;;;;;9.03;3.40;;;;;;;-1.06;94.14;95604.03;1043790;28;20509;-71
2021/04/06 01:20:17;;;;;;;11.37;3.17;;;;;;;-1.11;93.62;95599.41;1044095;28;20024;-70
2021/04/06 01:20:47;;;;;;;8.73;3.42;;;;;;;-1.13;94.98;95600.59;1039779;28;20048;-71
2021/04/06 01:21:18;;;;;;;11.17;3.87;;;;;;;-1.07;95.47;95599.81;1040165;28;20028;-70
2021/04/06 01:21:48;;;;;;;9.87;3.50;;;;;;;-1.09;94.76;95607.84;1043999;28;20028;-71
2021/04/06 01:22:19;;;;;;;11.00;3.87;;;;;;;-1.09;95.26;95604.44;1043964;28;20402;-71
2021/04/06 01:22:54;;;;;;;12.10;3.87;;;;;;;-1.07;95.04;95605.84;1043999;28;20020;-71
2021/04/06 01:23:24;;;;;;;7.03;3.35;;;;;;;-1.07;94.81;95608.47;1039988;28;20044;-70
2021/04/06 01:23:55;;;;;;;10.43;3.93;;;;;;;-1.10;94.95;95600.19;1035443;28;20100;-71
2021/04/06 01:24:29;;;;;;;6.53;3.50;;;;;;;-1.11;94.52;95598.59;1035872;28;20022;-71
2021/04/06 01:25:00;;;;;;;11.32;3.70;;;;;;;-1.15;94.54;95600.81;1036419;28;20042;-71
2021/04/06 01:25:33;;;;;;;9.10;3.53;;;;;;;-1.14;94.99;95599.81;1036579;28;20026;-71
2021/04/06 01:26:08;;;;;;;13.00;3.85;;;;;;;-1.16;94.87;95601.84;1039728;28;20037;-70
2021/04/06 01:26:39;;;;;;;10.48;3.65;;;;;;;-1.17;94.99;95602.06;1039755;28;20096;-70
2021/04/06 01:27:14;;;;;;;10.17;3.57;;;;;;;-1.14;94.35;95599.00;1034449;28;20438;-71
2021/04/06 01:27:44;;;;;;;9.50;3.58;;;;;;;-1.17;94.12;95594.19;1031469;28;20015;-71
2021/04/06 01:28:15;;;;;;;8.23;3.50;;;;;;;-1.19;94.47;95596.19;1033035;28;20475;-70
2021/04/06 01:28:45;;;;;;;11.07;3.67;;;;;;;-1.18;94.67;95598.59;1036500;28;20375;-71
2021/04/06 01:29:15;;;;;;;9.33;4.37;;;;;;;-1.22;94.13;95596.63;1039744;28;20552;-71
2021/04/06 01:29:54;;;;;;;8.40;3.30;;;;;;;-1.28;94.30;95594.78;1035727;28;20145;-71
2021/04/06 01:30:43;;;;;;;11.70;3.15;;;;;;;-1.34;93.93;95597.22;1035917;28;20018;-71
2021/04/06 01:31:13;;;;;;;9.82;3.42;;;;;;;-1.41;94.50;95599.06;1039474;28;20099;-70
2021/04/06 01:31:44;;;;;;;6.93;3.10;;;;;;;-1.39;94.24;95598.84;1039474;28;20044;-71
2021/04/06 01:32:15;;;;;;;7.13;3.43;;;;;;;-1.37;95.19;95600.28;1039861;28;20030;-71
2021/04/06 01:32:46;;;;;;;8.18;3.40;;;;;;;-1.34;95.22;95597.22;1039929;28;20848;-71
2021/04/06 01:33:21;;;;;;;11.80;3.67;;;;;;;-1.30;94.95;95595.00;1039846;28;20037;-71
2021/04/06 01:33:51;;;;;;;12.13;3.70;;;;;;;-1.31;93.99;95598.66;1039827;28;20093;-72
2021/04/06 01:34:22;;;;;;;8.13;3.60;;;;;;;-1.30;93.81;95592.38;1039929;28;20434;-70
2021/04/06 01:34:52;;;;;;;7.23;3.80;;;;;;;-1.27;94.18;95589.38;1035739;28;20514;-70
2021/04/06 01:35:23;;;;;;;11.63;3.77;;;;;;;-1.23;94.65;95592.34;1031459;28;20106;-70
2021/04/06 01:35:55;;;;;;;10.30;4.30;;;;;;;-1.23;95.00;95601.03;1031697;28;20543;-70
2021/04/06 01:36:25;;;;;;;9.98;3.72;;;;;;;-1.25;94.50;95597.81;1035891;28;20014;-70
2021/04/06 01:36:56;;;;;;;9.02;3.95;;;;;;;-1.22;94.45;95592.19;1039877;28;20014;-71
2021/04/06 01:37:28;;;;;;;9.23;3.85;;;;;;;-1.20;95.16;95600.63;1040102;28;20021;-71
2021/04/06 01:37:59;;;;;;;8.27;3.63;;;;;;;-1.21;94.71;95599.03;1035828;28;20018;-72
2021/04/06 01:38:30;;;;;;;8.13;3.67;;;;;;;-1.24;94.33;95594.19;1031780;28;20447;-70
2021/04/06 01:39:00;;;;;;;10.10;3.37;;;;;;;-1.25;94.07;95600.44;1031705;28;20038;-70
2021/04/06 01:39:30;;;;;;;10.17;3.33;;;;;;;-1.28;94.32;95595.59;1032300;28;20455;-70
2021/04/06 01:40:03;;;;;;;12.77;3.80;;;;;;;-1.21;94.67;95592.97;1031911;28;20030;-70
2021/04/06 01:40:33;;;;;;;8.27;3.30;;;;;;;-1.25;93.99;95595.19;1035793;28;20135;-71
2021/04/06 01:41:04;;;;;;;8.60;3.30;;;;;;;-1.28;93.90;95592.97;1035702;28;20498;-70
2021/04/06 01:41:34;;;;;;;9.60;3.73;;;;;;;-1.25;94.39;95603.06;1036145;28;20011;-70
2021/04/06 01:42:07;;;;;;;8.70;3.70;;;;;;;-1.29;93.99;95591.38;1040113;28;20014;-70
2021/04/06 01:42:38;;;;;;;12.73;3.53;;;;;;;-1.26;94.27;95590.97;1039843;28;20022;-70
2021/04/06 01:43:09;;;;;;;13.05;3.78;;;;;;;-1.24;94.69;95591.56;1031686;28;20018;-70
2021/04/06 01:43:40;;;;;;;9.27;3.47;;;;;;;-1.23;94.92;95592.34;1031713;28;20034;-69
2021/04/06 01:44:11;;;;;;;6.17;3.13;;;;;;;-1.22;94.54;95589.56;1027311;28;20027;-70
2021/04/06 01:44:44;;;;;;;9.23;3.20;;;;;;;-1.23;94.65;95589.75;1027993;28;20023;-71
2021/04/06 01:45:15;;;;;;;8.20;3.65;;;;;;;-1.21;94.23;95588.53;1027776;28;20022;-71
2021/04/06 01:45:49;;;;;;;9.38;4.30;;;;;;;-1.21;94.98;95593.78;1028177;28;20492;-70
2021/04/06 01:46:30;;;;;;;10.63;4.22;;;;;;;-1.24;95.44;95586.31;1032684;28;20030;-72
2021/04/06 01:47:01;;;;;;;9.82;3.53;;;;;;;-1.24;95.02;95586.31;1038052;28;20109;-70
2021/04/06 01:47:31;;;;;;;13.43;4.13;;;;;;;-1.24;94.99;95586.31;1039907;28;20026;-70
2021/04/06 01:48:02;;;;;;;9.57;3.70;;;;;;;-1.28;94.87;95587.72;1040580;28;20017;-70
2021/04/06 01:48:33;;;;;;;12.10;4.33;;;;;;;-1.29;95.34;95588.75;1034015;28;20101;-70
2021/04/06 01:49:03;;;;;;;12.45;4.22;;;;;;;-1.28;95.56;95585.09;1036525;28;20534;-71
2021/04/06 01:49:34;;;;;;;10.10;4.20;;;;;;;-1.28;95.57;95585.09;1036369;28;20151;-71
2021/04/06 01:50:05;;;;;;;6.73;3.70;;;;;;;-1.26;95.66;95583.09;1032815;28;20026;-71
2021/04/06 01:50:35;;;;;;;8.88;3.70;;;;;;;-1.33;95.70;95585.75;1040673;28;20473;-71
2021/04/06 01:51:06;;;;;;;13.07;4.07;;;;;;;-1.35;95.31;95585.13;1040695;28;20057;-71
2021/04/06 01:51:36;;;;;;;9.73;4.23;;;;;;;-1.34;95.13;95588.56;1040922;28;20548;-71
2021/04/06 01:52:07;;;;;;;7.83;3.97;;;;;;;-1.36;94.77;95580.09;1036474;28;20021;-70
2021/04/06 01:52:38;;;;;;;9.13;4.03;;;;;;;-1.36;94.92;95587.97;1032466;28;20025;-71
2021/04/06 01:53:10;;;;;;;11.48;3.95;;;;;;;-1.37;95.45;95587.16;1032227;28;20018;-71
2021/04/06 01:53:41;;;;;;;11.30;4.22;;;;;;;-1.31;95.25;95580.28;1032981;28;20111;-72
2021/04/06 01:54:14;;;;;;;9.05;4.10;;;;;;;-1.32;95.00;95578.69;1039901;28;20006;-71
2021/04/06 01:54:53;;;;;;;9.57;3.75;;;;;;;-1.38;95.33;95582.13;1041419;28;20026;-70
2021/04/06 01:55:31;;;;;;;7.28;3.95;;;;;;;-1.38;95.67;95576.91;1044835;28;20036;-70
2021/04/06 01:56:09;;;;;;;9.23;4.20;;;;;;;-1.39;95.67;95583.94;1045028;28;20020;-70
2021/04/06 01:56:48;;;;;;;9.65;3.80;;;;;;;-1.40;95.54;95582.31;1045046;28;20025;-70
2021/04/06 01:57:23;;;;;;;11.57;4.20;;;;;;;-1.40;95.31;95579.69;1045011;28;20017;-72
2021/04/06 01:57:53;;;;;;;7.75;3.60;;;;;;;-1.44;95.46;95577.69;1040625;28;20537;-71
2021/04/06 01:58:28;;;;;;;9.47;4.00;;;;;;;-1.51;95.32;95576.91;1036493;28;20026;-70
2021/04/06 01:59:02;;;;;;;10.90;4.55;;;;;;;-1.56;95.59;95569.66;1036524;28;20018;-71
2021/04/06 01:59:37;;;;;;;10.90;4.25;;;;;;;-1.52;96.27;95576.09;1039892;28;20025;-70
2021/04/06 02:00:31;;;;;;;13.25;4.38;;;;;;;-1.53;96.18;95577.13;1036425;28;20022;-70
2021/04/06 02:01:41;;;;;;;12.77;4.70;;;;;;;-1.62;96.19;95573.91;1041304;28;20430;-69
2021/04/06 02:02:11;;;;;;;11.10;3.60;;;;;;;-1.64;96.50;95575.09;1044884;28;20046;-69
2021/04/06 02:02:42;;;;;;;9.63;3.77;;;;;;;-1.59;96.88;95567.44;1044497;28;20052;-70
2021/04/06 02:03:14;;;;;;;12.00;4.30;;;;;;;-1.53;96.71;95565.84;1044791;28;20021;-70
2021/04/06 02:03:54;;;;;;;13.40;4.47;;;;;;;-1.57;96.27;95568.84;1044727;28;20025;-70
2021/04/06 02:04:25;;;;;;;8.73;3.97;;;;;;;-1.56;96.62;95567.03;1040735;28;20128;-69
2021/04/06 02:04:59;;;;;;;12.20;4.82;;;;;;;-1.57;96.75;95568.84;1040714;28;20571;-71
2021/04/06 02:05:30;;;;;;;9.07;4.05;;;;;;;-1.59;97.22;95568.25;1038479;28;20487;-71
2021/04/06 02:06:00;;;;;;;11.37;4.63;;;;;;;-1.56;97.71;95569.66;1036622;28;20029;-71
2021/04/06 02:06:33;;;;;;;11.80;4.53;;;;;;;-1.55;97.73;95566.00;1036544;28;20033;-70
2021/04/06 02:07:04;;;;;;;9.35;4.45;;;;;;;-1.62;97.50;95566.03;1037029;28;20037;-70
2021/04/06 02:07:38;;;;;;;11.23;4.07;;;;;;;-1.63;97.73;95563.63;1041342;28;20024;-71
2021/04/06 02:08:11;;;;;;;11.52;4.50;;;;;;;-1.70;97.76;95562.81;1042532;28;20028;-71
2021/04/06 02:08:49;;;;;;;9.85;4.40;;;;;;;-1.66;97.94;95575.31;1038252;28;20041;-71
2021/04/06 02:09:20;;;;;;;11.63;4.30;;;;;;;-1.61;97.86;95558.97;1036440;28;20018;-72
2021/04/06 02:09:50;;;;;;;10.55;4.43;;;;;;;-1.57;97.62;95553.13;1036492;28;20022;-71
2021/04/06 02:10:21;;;;;;;11.27;4.20;;;;;;;-1.52;97.52;95563.00;1038124;28;20407;-71
2021/04/06 02:10:51;;;;;;;10.50;4.73;;;;;;;-1.49;97.11;95561.78;1032480;28;20503;-70
2021/04/06 02:11:28;;;;;;;8.93;4.60;;;;;;;-1.47;97.15;95557.94;1036279;28;20546;-71
2021/04/06 02:11:58;;;;;;;11.85;4.13;;;;;;;-1.52;96.85;95559.56;1036423;28;20030;-71
2021/04/06 02:12:28;;;;;;;10.77;4.13;;;;;;;-1.49;97.23;95564.38;1037342;28;20026;-71
2021/04/06 02:13:13;;;;;;;6.87;3.53;;;;;;;-1.60;96.76;95561.38;1040856;28;20022;-71
2021/04/06 02:13:43;;;;;;;10.35;4.47;;;;;;;-1.60;96.59;95557.97;1040559;28;20017;-72
2021/04/06 02:14:21;;;;;;;12.07;4.00;;;;;;;-1.55;96.95;95559.97;1042325;28;20121;-72
2021/04/06 02:14:53;;;;;;;12.75;4.70;;;;;;;-1.51;96.92;95561.19;1044590;28;20024;-71
2021/04/06 02:15:23;;;;;;;9.70;4.28;;;;;;;-1.48;97.07;95566.03;1040616;28;20096;-70
2021/04/06 02:16:00;;;;;;;10.67;3.97;;;;;;;-1.54;97.24;95562.38;1041899;28;20026;-71
2021/04/06 02:16:53;;;;;;;8.52;4.05;;;;;;;-1.49;96.46;95564.38;1044717;28;20465;-70
2021/04/06 02:17:24;;;;;;;10.32;3.90;;;;;;;-1.49;96.41;95559.94;1044947;28;20012;-71
2021/04/06 02:17:54;;;;;;;9.30;4.10;;;;;;;-1.49;96.17;95561.78;1045022;28;20017;-70
2021/04/06 02:18:28;;;;;;;11.13;4.13;;;;;;;-1.42;95.91;95563.38;1045065;28;20028;-70
2021/04/06 02:18:59;;;;;;;8.65;4.20;;;;;;;-1.43;95.97;95559.16;1044932;28;20025;-71
2021/04/06 02:19:31;;;;;;;9.67;4.13;;;;;;;-1.50;95.66;95565.41;1044962;28;20377;-71
2021/04/06 02:20:02;;;;;;;10.63;4.47;;;;;;;-1.49;95.81;95565.19;1044536;28;20025;-71
2021/04/06 02:20:33;;;;;;;11.23;4.30;;;;;;;-1.48;95.11;95566.03;1044497;28;20450;-71
2021/04/06 02:21:04;;;;;;;7.90;4.20;;;;;;;-1.44;95.91;95569.81;1044563;28;20033;-69
2021/04/06 02:21:48;;;;;;;9.07;4.38;;;;;;;-1.48;96.18;95568.66;1044926;28;20108;-72
2021/04/06 02:22:19;;;;;;;10.02;4.15;;;;;;;-1.44;95.83;95565.38;1040452;28;20056;-71
2021/04/06 02:22:54;;;;;;;11.32;4.30;;;;;;;-1.48;95.81;95558.97;1040589;28;20621;-71
2021/04/06 02:23:25;;;;;;;8.38;4.22;;;;;;;-1.49;95.37;95567.00;1040520;28;20099;-71
2021/04/06 02:23:56;;;;;;;12.38;3.80;;;;;;;-1.50;94.79;95557.53;1042441;28;20026;-70
2021/04/06 02:24:30;;;;;;;10.67;3.97;;;;;;;-1.48;94.86;95566.03;1043536;28;20045;-72
2021/04/06 02:25:00;;;;;;;11.02;4.00;;;;;;;-1.49;94.74;95567.00;1044658;28;20031;-71
2021/04/06 02:25:31;;;;;;;12.87;4.17;;;;;;;-1.47;94.22;95557.94;1040484;28;20037;-71
2021/04/06 02:26:01;;;;;;;11.10;3.97;;;;;;;-1.52;94.09;95560.38;1041224;28;20018;-71
2021/04/06 02:26:31;;;;;;;9.83;3.43;;;;;;;-1.55;93.85;95567.84;1044680;28;20025;-71
2021/04/06 02:27:06;;;;;;;10.80;3.60;;;;;;;-1.53;93.49;95571.06;1044745;28;20028;-71
2021/04/06 02:27:37;;;;;;;10.45;4.15;;;;;;;-1.54;93.94;95562.38;1044908;28;20025;-71
2021/04/06 02:28:07;;;;;;;8.90;4.20;;;;;;;-1.51;93.77;95563.81;1045024;28;20466;-70
2021/04/06 02:28:37;;;;;;;10.07;4.60;;;;;;;-1.56;94.34;95567.03;1044688;28;20032;-71
2021/04/06 02:29:08;;;;;;;8.47;4.00;;;;;;;-1.57;95.08;95566.22;1044571;28;20016;-71
2021/04/06 02:29:43;;;;;;;8.13;4.00;;;;;;;-1.60;94.22;95568.44;1044365;28;20036;-71
2021/04/06 02:30:14;;;;;;;11.60;3.97;;;;;;;-1.55;94.20;95575.69;1044672;28;20029;-71
2021/04/06 02:30:54;;;;;;;10.40;4.07;;;;;;;-1.57;94.10;95562.81;1044980;28;20013;-71
2021/04/06 02:31:25;;;;;;;8.57;3.92;;;;;;;-1.54;93.71;95561.56;1044636;28;20021;-70
2021/04/06 02:31:58;;;;;;;12.57;4.53;;;;;;;-1.51;93.66;95566.41;1040366;28;20029;-70
2021/04/06 02:32:30;;;;;;;9.93;3.75;;;;;;;-1.49;93.96;95564.38;1040514;28;20025;-71
2021/04/06 02:33:01;;;;;;;11.00;4.10;;;;;;;-1.48;94.12;95568.66;1040536;28;20060;-70
2021/04/06 02:33:33;;;;;;;7.82;3.97;;;;;;;-1.54;93.93;95570.25;1041219;28;20363;-69
2021/04/06 02:34:03;;;;;;;10.88;4.05;;;;;;;-1.60;93.48;95564.00;1045039;28;20121;-70